Parq Torremolinos, Puerto Rico
Current Conditions -  °F | °C
As of 6:45 PM on Tuesday 25 Nov 2014 (Local Time) from TJIG Reporting Station
Broken Clouds Broken Clouds  
Wind Chill: 81°   Ceiling: 8000
Heat Index: 84°   Visibility: 10mi
Dew Point: 70°   Wind: 14mph
Humidity: 70%   Direction: 100°E
Pressure: 30.04"   Gusts: NA
Location:  18.3866°N, 66.1135°W
Report Text: TJIG 252245Z 10012KT 10SM SCT025 BKN080 27/21 A3004 RMK TER CLSD 2300Z TO 1100Z
Loading
Personal Weather Stations






























Interactive Weather Map New forecast layout! Learn more

10-Day Weather Forecast

Advertisements
Track Severe Weather on mobile